createdAt,value
2022-12-13T00:00:34.096Z,20.60
2022-12-13T00:03:36.974Z,19.90
2022-12-13T00:06:41.297Z,16.80
2022-12-13T00:09:44.340Z,15.00
2022-12-13T00:12:47.188Z,14.07
2022-12-13T00:15:57.517Z,13.40
2022-12-13T00:19:01.242Z,14.43
2022-12-13T00:22:05.419Z,14.43
2022-12-13T00:25:09.035Z,15.10
2022-12-13T00:28:12.128Z,17.20
2022-12-13T00:31:53.398Z,17.70
2022-12-13T00:34:37.786Z,15.20
2022-12-13T00:37:41.965Z,15.90
2022-12-13T00:40:44.836Z,16.63
2022-12-13T00:43:48.197Z,17.27
2022-12-13T00:46:51.920Z,15.40
2022-12-13T00:49:54.792Z,16.03
2022-12-13T00:53:00.094Z,16.67
2022-12-13T00:56:03.430Z,17.70
2022-12-13T00:59:06.483Z,15.70
2022-12-13T01:02:09.350Z,15.37
2022-12-13T01:05:13.169Z,14.00
2022-12-13T01:08:17.536Z,13.47
2022-12-13T01:11:20.738Z,15.57
2022-12-13T01:14:24.145Z,14.77
2022-12-13T01:17:27.351Z,14.00
2022-12-13T01:20:30.199Z,13.73
2022-12-13T01:23:35.157Z,14.43
2022-12-13T01:26:38.450Z,14.07
2022-12-13T01:29:41.362Z,13.03
2022-12-13T01:32:44.245Z,14.00
2022-12-13T01:35:47.065Z,13.13
2022-12-13T01:38:51.797Z,14.13
2022-12-13T01:42:03.319Z,14.00
2022-12-13T01:45:15.790Z,14.87
2022-12-13T01:48:24.292Z,13.03
2022-12-13T01:51:30.711Z,11.90
2022-12-13T01:54:39.250Z,10.57
2022-12-13T01:57:51.644Z,11.50
2022-12-13T02:00:54.665Z,11.53
2022-12-13T02:03:57.506Z,11.53
2022-12-13T02:07:01.138Z,10.83
2022-12-13T02:10:08.811Z,11.87
2022-12-13T02:13:11.845Z,11.60
2022-12-13T02:16:25.413Z,11.63
2022-12-13T02:20:21.739Z,11.80
2022-12-13T02:24:09.702Z,12.70
2022-12-13T02:27:30.545Z,12.70
2022-12-13T02:30:40.060Z,11.30
2022-12-13T02:33:51.396Z,12.53
2022-12-13T02:37:03.854Z,12.23
2022-12-13T02:40:11.905Z,13.07
2022-12-13T02:43:21.461Z,12.90
2022-12-13T02:46:30.385Z,13.33
2022-12-13T02:49:39.541Z,12.63
2022-12-13T02:52:46.451Z,12.73
2022-12-13T02:55:49.876Z,11.63
2022-12-13T02:58:56.902Z,11.47
2022-12-13T03:02:13.913Z,12.87
2022-12-13T03:05:59.412Z,12.33
2022-12-13T03:09:14.934Z,11.93
2022-12-13T03:12:44.387Z,11.47
2022-12-13T03:15:57.018Z,12.27
2022-12-13T03:19:05.688Z,11.57
2022-12-13T03:22:08.545Z,12.20
2022-12-13T03:25:11.557Z,11.33
2022-12-13T03:28:14.787Z,12.73
2022-12-13T03:31:17.699Z,11.53
2022-12-13T03:34:22.911Z,10.93
2022-12-13T03:37:26.369Z,11.20
2022-12-13T03:40:30.269Z,11.57
2022-12-13T03:43:33.698Z,10.00
2022-12-13T03:46:37.045Z,10.80
2022-12-13T03:49:41.226Z,10.23
2022-12-13T03:52:44.345Z,11.17
2022-12-13T03:55:47.398Z,11.60
2022-12-13T03:58:50.287Z,9.47
2022-12-13T04:01:53.136Z,10.57
2022-12-13T04:04:57.366Z,12.00
2022-12-13T04:08:03.827Z,10.13
2022-12-13T04:11:42.674Z,11.33
2022-12-13T04:14:46.275Z,11.53
2022-12-13T04:17:51.213Z,10.80
2022-12-13T04:20:55.529Z,10.70
2022-12-13T04:24:00.988Z,10.77
2022-12-13T04:27:04.584Z,11.87
2022-12-13T04:30:08.801Z,10.33
2022-12-13T04:33:11.632Z,11.23
2022-12-13T04:36:31.643Z,10.67
2022-12-13T04:39:35.773Z,11.87
2022-12-13T04:42:38.730Z,12.53
2022-12-13T04:45:41.823Z,11.13
2022-12-13T04:48:44.750Z,11.97
2022-12-13T04:51:48.960Z,12.07
2022-12-13T04:54:55.858Z,12.83
2022-12-13T04:57:59.084Z,12.77
2022-12-13T05:01:01.971Z,13.03
2022-12-13T05:04:04.913Z,12.77
2022-12-13T05:07:09.124Z,12.80
2022-12-13T05:10:12.905Z,16.00
2022-12-13T05:13:35.307Z,13.23
2022-12-13T05:16:38.158Z,13.70
2022-12-13T05:19:41.266Z,14.23
2022-12-13T05:22:45.473Z,13.80
2022-12-13T05:25:48.582Z,12.93
2022-12-13T05:28:52.564Z,12.93
2022-12-13T05:31:55.477Z,13.53
2022-12-13T05:34:58.345Z,14.23
2022-12-13T05:38:02.571Z,14.47
2022-12-13T05:41:05.980Z,12.93
2022-12-13T05:44:10.371Z,14.33
2022-12-13T05:47:13.246Z,14.07
2022-12-13T05:50:17.417Z,13.27
2022-12-13T05:53:30.297Z,13.70
2022-12-13T05:56:34.094Z,13.93
2022-12-13T05:59:37.039Z,12.40
2022-12-13T06:02:40.605Z,13.87
2022-12-13T06:05:44.354Z,13.60
2022-12-13T06:08:48.916Z,13.13
2022-12-13T06:11:51.843Z,14.33
2022-12-13T06:15:04.490Z,14.60
2022-12-13T06:18:24.994Z,14.60
2022-12-13T06:21:27.860Z,12.40
2022-12-13T06:24:32.236Z,13.47
2022-12-13T06:27:35.077Z,13.03
2022-12-13T06:30:42.655Z,13.27
2022-12-13T06:33:45.897Z,12.43
2022-12-13T06:36:48.761Z,12.77
2022-12-13T06:39:52.929Z,13.87
2022-12-13T06:42:55.774Z,14.03
2022-12-13T06:45:58.611Z,13.90
2022-12-13T06:49:01.941Z,13.47
2022-12-13T06:52:05.066Z,16.40
2022-12-13T06:55:10.278Z,13.77
2022-12-13T06:58:13.084Z,14.63
2022-12-13T07:01:24.005Z,14.43
2022-12-13T07:04:29.429Z,14.60
2022-12-13T07:07:33.644Z,14.67
2022-12-13T07:10:40.454Z,13.87
2022-12-13T07:13:43.678Z,13.13
2022-12-13T07:16:46.518Z,14.97
2022-12-13T07:19:49.321Z,14.20
2022-12-13T07:22:58.866Z,14.80
2022-12-13T07:26:03.535Z,15.50
2022-12-13T07:29:06.354Z,16.30
2022-12-13T07:32:09.170Z,16.37
2022-12-13T07:35:11.994Z,18.17
2022-12-13T07:38:14.805Z,15.80
2022-12-13T07:41:23.612Z,17.57
2022-12-13T07:44:27.139Z,18.07
2022-12-13T07:47:31.034Z,16.03
2022-12-13T07:50:36.863Z,17.00
2022-12-13T07:53:41.615Z,16.97
2022-12-13T07:56:46.030Z,18.67
2022-12-13T07:59:49.116Z,17.23
2022-12-13T08:02:52.195Z,19.03
2022-12-13T08:06:02.546Z,18.53
2022-12-13T08:09:06.381Z,17.33
2022-12-13T08:12:10.704Z,16.43
2022-12-13T08:15:14.291Z,17.93
2022-12-13T08:18:17.297Z,17.20
2022-12-13T08:21:52.443Z,18.13
2022-12-13T08:24:43.101Z,16.03
2022-12-13T08:27:47.531Z,18.60
2022-12-13T08:30:51.203Z,18.10
2022-12-13T08:33:54.458Z,18.40
2022-12-13T08:37:02.808Z,17.70
2022-12-13T08:40:07.557Z,18.33
2022-12-13T08:43:12.381Z,18.77
2022-12-13T08:46:15.469Z,20.50
2022-12-13T08:49:18.364Z,17.73
2022-12-13T08:52:22.637Z,18.73
2022-12-13T08:55:31.601Z,19.03
2022-12-13T08:58:36.566Z,18.07
2022-12-13T09:01:39.472Z,18.03
2022-12-13T09:04:42.733Z,18.87
2022-12-13T09:07:45.583Z,18.37
2022-12-13T09:10:59.026Z,17.83
2022-12-13T09:14:03.712Z,17.93
2022-12-13T09:17:07.086Z,17.33
2022-12-13T09:20:29.018Z,18.30
2022-12-13T09:23:35.592Z,17.77
2022-12-13T09:26:38.794Z,16.37
2022-12-13T09:29:43.508Z,18.60
2022-12-13T09:32:49.872Z,17.33
2022-12-13T09:35:53.054Z,16.33
2022-12-13T09:38:58.694Z,16.93
2022-12-13T09:42:01.983Z,17.73
2022-12-13T09:45:21.960Z,17.30
2022-12-13T09:48:26.405Z,16.47
2022-12-13T09:51:43.795Z,17.30
2022-12-13T09:54:49.537Z,16.43
2022-12-13T09:57:53.493Z,16.37
2022-12-13T10:00:59.476Z,17.07
2022-12-13T10:04:02.559Z,15.37
2022-12-13T10:07:11.091Z,18.20
2022-12-13T10:10:15.198Z,16.43
2022-12-13T10:13:21.800Z,15.27
2022-12-13T10:16:35.974Z,17.37
2022-12-13T10:19:42.365Z,19.03
2022-12-13T10:23:01.603Z,17.80
2022-12-13T10:26:14.900Z,16.93
2022-12-13T10:29:27.635Z,18.90
2022-12-13T10:32:37.613Z,18.00
2022-12-13T10:35:42.288Z,15.50
2022-12-13T10:38:46.824Z,15.97
2022-12-13T10:41:49.640Z,16.33
2022-12-13T10:45:11.405Z,16.03
2022-12-13T10:48:24.961Z,16.20
2022-12-13T10:51:28.334Z,17.37
2022-12-13T10:54:38.334Z,15.37
2022-12-13T10:57:41.444Z,15.27
2022-12-13T11:00:46.726Z,17.13
2022-12-13T11:04:02.560Z,15.13
2022-12-13T11:07:23.705Z,15.63
2022-12-13T11:10:29.138Z,15.50
2022-12-13T11:13:39.049Z,13.23
2022-12-13T11:16:43.051Z,15.13
2022-12-13T11:19:49.957Z,15.17
2022-12-13T11:23:03.712Z,15.20
2022-12-13T11:26:10.471Z,12.97
2022-12-13T11:29:32.129Z,15.17
2022-12-13T11:32:59.081Z,14.90
2022-12-13T11:36:12.973Z,15.03
2022-12-13T11:39:21.391Z,14.70
2022-12-13T11:42:30.303Z,14.17
2022-12-13T11:45:38.411Z,15.00
2022-12-13T11:48:47.327Z,14.83
2022-12-13T11:51:57.222Z,15.90
2022-12-13T11:55:02.615Z,15.40
2022-12-13T11:58:16.462Z,15.87
2022-12-13T12:01:27.556Z,16.00
2022-12-13T12:04:35.699Z,16.57
2022-12-13T12:08:12.812Z,16.00
2022-12-13T12:11:13.940Z,16.03
2022-12-13T12:14:22.085Z,15.33
2022-12-13T12:17:26.338Z,15.80
2022-12-13T12:20:43.012Z,15.33
2022-12-13T12:24:02.651Z,17.40
2022-12-13T12:27:22.411Z,16.47
2022-12-13T12:30:31.279Z,17.63
2022-12-13T12:33:44.307Z,15.13
2022-12-13T12:36:58.441Z,16.30
2022-12-13T12:40:52.150Z,15.40
2022-12-13T12:44:05.018Z,14.77
2022-12-13T12:47:47.985Z,16.23
2022-12-13T12:50:48.861Z,15.47
2022-12-13T12:53:55.756Z,15.40
2022-12-13T12:57:07.701Z,17.13
2022-12-13T13:00:15.503Z,16.17
2022-12-13T13:03:23.250Z,16.07
2022-12-13T13:06:29.870Z,15.30
2022-12-13T13:09:34.010Z,15.40
2022-12-13T13:12:42.985Z,14.47
2022-12-13T13:15:57.539Z,15.23
2022-12-13T13:19:02.220Z,15.13
2022-12-13T13:22:06.414Z,15.33
2022-12-13T13:25:32.092Z,15.03
2022-12-13T13:28:36.393Z,13.57
2022-12-13T13:32:01.232Z,14.87
2022-12-13T13:35:50.854Z,15.27
2022-12-13T13:38:55.370Z,15.23
2022-12-13T13:42:18.876Z,13.70
2022-12-13T13:45:24.684Z,15.10
2022-12-13T13:48:42.088Z,15.33
2022-12-13T13:52:24.316Z,14.47
2022-12-13T13:55:47.920Z,15.00
2022-12-13T13:59:25.114Z,16.50
2022-12-13T14:03:22.385Z,14.23
2022-12-13T14:07:08.710Z,16.40
2022-12-13T14:10:27.297Z,16.43
2022-12-13T14:14:21.693Z,16.23
2022-12-13T14:17:58.414Z,15.70
2022-12-13T14:21:12.186Z,14.50
2022-12-13T14:24:23.245Z,16.30
2022-12-13T14:27:40.791Z,13.37
2022-12-13T14:30:48.079Z,15.53
2022-12-13T14:34:04.014Z,15.90
2022-12-13T14:37:19.658Z,15.13
2022-12-13T14:40:29.329Z,16.20
2022-12-13T14:43:33.748Z,16.40
2022-12-13T14:46:36.859Z,17.53
2022-12-13T14:49:48.689Z,16.20
2022-12-13T14:52:51.927Z,16.67
2022-12-13T14:56:07.384Z,16.10
2022-12-13T14:59:14.003Z,17.07
2022-12-13T15:02:18.903Z,17.40
2022-12-13T15:05:45.665Z,16.67
2022-12-13T15:08:53.708Z,17.33
2022-12-13T15:12:02.901Z,17.63
2022-12-13T15:15:26.123Z,20.00
2022-12-13T15:18:29.994Z,23.27
2022-12-13T15:21:34.262Z,18.73
2022-12-13T15:24:40.947Z,18.73
2022-12-13T15:27:48.258Z,17.90
2022-12-13T15:30:52.571Z,18.03
2022-12-13T15:34:01.032Z,17.93
2022-12-13T15:37:29.397Z,18.23
2022-12-13T15:40:34.163Z,20.50
2022-12-13T15:43:43.466Z,22.77
2022-12-13T15:46:48.568Z,19.13
2022-12-13T15:49:54.329Z,19.37
2022-12-13T15:53:02.898Z,17.87
2022-12-13T15:56:34.624Z,17.63
2022-12-13T15:59:37.754Z,16.97
2022-12-13T16:02:51.960Z,16.03
2022-12-13T16:05:56.834Z,16.60
2022-12-13T16:09:04.334Z,15.70
2022-12-13T16:12:08.678Z,14.90
2022-12-13T16:15:20.526Z,16.27
2022-12-13T16:18:33.121Z,16.60
2022-12-13T16:21:36.213Z,16.63
2022-12-13T16:24:40.494Z,16.53
2022-12-13T16:27:43.399Z,16.43
2022-12-13T16:31:04.823Z,16.33
2022-12-13T16:34:07.702Z,17.27
2022-12-13T16:37:26.772Z,18.00
2022-12-13T16:40:33.159Z,17.43
2022-12-13T16:43:40.442Z,18.53
2022-12-13T16:47:18.136Z,18.63
2022-12-13T16:50:14.851Z,17.90
2022-12-13T16:53:18.058Z,18.97
2022-12-13T16:56:22.426Z,17.00
2022-12-13T16:59:27.441Z,16.83
2022-12-13T17:02:30.292Z,22.60
2022-12-13T17:05:35.138Z,21.70
2022-12-13T17:08:38.178Z,17.50
2022-12-13T17:11:42.538Z,17.37
2022-12-13T17:14:45.344Z,16.70
2022-12-13T17:17:48.897Z,17.80
2022-12-13T17:20:58.294Z,19.23
2022-12-13T17:24:03.300Z,17.30
2022-12-13T17:27:07.774Z,17.30
2022-12-13T17:30:15.232Z,20.30
2022-12-13T17:33:18.219Z,17.87
2022-12-13T17:36:21.110Z,19.80
2022-12-13T17:39:25.432Z,18.03
2022-12-13T17:42:29.832Z,21.07
2022-12-13T17:45:32.892Z,21.50
2022-12-13T17:48:40.660Z,20.73
2022-12-13T17:51:44.077Z,20.73
2022-12-13T17:54:54.708Z,19.87
2022-12-13T17:58:04.288Z,17.67
2022-12-13T18:01:12.509Z,15.37
2022-12-13T18:04:16.095Z,17.20
2022-12-13T18:07:20.310Z,17.03
2022-12-13T18:10:27.954Z,17.80
2022-12-13T18:13:34.095Z,16.97
2022-12-13T18:16:38.938Z,16.43
2022-12-13T18:19:42.333Z,16.80
2022-12-13T18:22:51.333Z,17.10
2022-12-13T18:26:00.151Z,17.87
2022-12-13T18:29:05.030Z,18.43
2022-12-13T18:32:07.824Z,19.53
2022-12-13T18:35:10.982Z,18.00
2022-12-13T18:38:13.888Z,18.30
2022-12-13T18:41:18.279Z,17.07
2022-12-13T18:44:22.580Z,17.53
2022-12-13T18:47:27.104Z,18.60
2022-12-13T18:50:30.187Z,18.43
2022-12-13T18:53:33.891Z,17.53
2022-12-13T18:56:36.713Z,17.10
2022-12-13T18:59:40.888Z,16.73
2022-12-13T19:02:43.876Z,17.07
2022-12-13T19:05:46.733Z,15.27
2022-12-13T19:08:50.306Z,14.03
2022-12-13T19:11:53.145Z,13.57
2022-12-13T19:14:57.346Z,12.67
2022-12-13T19:18:00.226Z,13.23
2022-12-13T19:21:03.345Z,13.83
2022-12-13T19:24:07.006Z,14.10
2022-12-13T19:27:09.921Z,13.37
2022-12-13T19:30:14.658Z,13.83
2022-12-13T19:33:18.392Z,13.67
2022-12-13T19:36:21.232Z,12.73
2022-12-13T19:39:24.984Z,12.93
2022-12-13T19:42:27.800Z,12.33
2022-12-13T19:45:31.977Z,13.33
2022-12-13T19:48:37.558Z,12.07
2022-12-13T19:51:40.856Z,12.87
2022-12-13T19:54:43.657Z,13.27
2022-12-13T19:57:47.329Z,12.97
2022-12-13T20:00:52.067Z,13.23
2022-12-13T20:03:56.373Z,12.20
2022-12-13T20:06:59.209Z,13.93
2022-12-13T20:10:02.104Z,14.97
2022-12-13T20:13:05.003Z,13.43
2022-12-13T20:16:09.520Z,14.17
2022-12-13T20:19:12.407Z,13.87
2022-12-13T20:22:15.498Z,14.07
2022-12-13T20:25:18.392Z,14.47
2022-12-13T20:28:21.487Z,14.33
2022-12-13T20:31:27.165Z,12.57
2022-12-13T20:34:30.149Z,12.30
2022-12-13T20:37:32.997Z,12.33
2022-12-13T20:40:35.820Z,13.70
2022-12-13T20:43:38.843Z,12.63
2022-12-13T20:46:43.115Z,11.80
2022-12-13T20:49:49.169Z,12.27
2022-12-13T20:52:53.001Z,11.67
2022-12-13T20:55:57.786Z,11.27
2022-12-13T20:59:00.661Z,12.03
2022-12-13T21:02:05.019Z,11.90
2022-12-13T21:05:08.572Z,12.00
2022-12-13T21:08:28.806Z,12.63
2022-12-13T21:11:33.538Z,12.33
2022-12-13T21:14:36.841Z,11.63
2022-12-13T21:17:42.307Z,11.60
2022-12-13T21:20:45.132Z,11.50
2022-12-13T21:23:48.554Z,13.00
2022-12-13T21:26:52.081Z,12.77
2022-12-13T21:29:54.898Z,11.97
2022-12-13T21:32:59.032Z,13.03
2022-12-13T21:36:10.097Z,12.83
2022-12-13T21:39:14.885Z,13.40
2022-12-13T21:42:17.711Z,11.93
2022-12-13T21:45:20.632Z,12.37
2022-12-13T21:48:24.878Z,12.13
2022-12-13T21:51:30.598Z,13.50
2022-12-13T21:54:33.427Z,12.07
2022-12-13T21:57:53.783Z,12.40
2022-12-13T22:00:56.732Z,12.77
2022-12-13T22:04:06.666Z,12.70
2022-12-13T22:07:13.466Z,13.17
2022-12-13T22:10:16.304Z,11.73
2022-12-13T22:13:19.121Z,13.47
2022-12-13T22:16:21.976Z,14.77
2022-12-13T22:19:26.170Z,12.67
2022-12-13T22:22:29.035Z,12.97
2022-12-13T22:25:31.848Z,13.57
2022-12-13T22:28:34.648Z,13.40
2022-12-13T22:31:37.572Z,13.90
2022-12-13T22:34:42.547Z,13.60
2022-12-13T22:37:45.923Z,12.87
2022-12-13T22:40:51.754Z,14.70
2022-12-13T22:43:54.643Z,12.93
2022-12-13T22:46:57.557Z,13.63
2022-12-13T22:50:01.722Z,14.10
2022-12-13T22:53:04.776Z,12.60
2022-12-13T22:56:09.141Z,13.57
2022-12-13T22:59:11.991Z,13.30
2022-12-13T23:02:15.070Z,13.13
2022-12-13T23:05:19.951Z,14.80
2022-12-13T23:08:22.819Z,13.17
2022-12-13T23:11:44.191Z,13.60
2022-12-13T23:14:46.971Z,12.20
2022-12-13T23:17:49.772Z,14.37
2022-12-13T23:20:54.029Z,16.20
2022-12-13T23:23:57.845Z,14.33
2022-12-13T23:27:00.684Z,15.20
2022-12-13T23:30:03.510Z,14.43
2022-12-13T23:33:06.929Z,14.60
2022-12-13T23:36:14.291Z,14.10
2022-12-13T23:39:17.141Z,14.97
2022-12-13T23:42:19.980Z,14.13
2022-12-13T23:45:23.535Z,13.87
2022-12-13T23:48:27.264Z,13.83
2022-12-13T23:51:32.154Z,15.17
2022-12-13T23:54:34.939Z,14.20
2022-12-13T23:57:37.729Z,15.83
